Time;durP1;ratioP1;P1;durP2;ratioP2;P2;SDS_P1;SDS_P2;PMS_P1;PMS_P2;Temp;Humidity;BMP_temperature;BMP_pressure;BME280_temperature;BME280_humidity;BME280_pressure;Samples;Min_cycle;Max_cycle;Signal;HPM_P1;HPM_P2
2022/01/27 00:07:35;;;;;;;37.88;18.95;;;3.80;99.90;;;;;;6076858;23;20013;-82
2022/01/27 00:12:33;;;;;;;36.15;18.80;;;3.80;99.90;;;;;;6076730;23;20046;-80
2022/01/27 00:15:09;;;;;;;30.83;17.02;;;3.80;99.90;;;;;;6105863;23;20544;-80
2022/01/27 00:17:41;;;;;;;32.38;17.23;;;3.80;99.90;;;;;;6105851;23;20042;-80
2022/01/27 00:20:07;;;;;;;34.72;18.33;;;3.80;99.90;;;;;;6081357;23;20010;-80
2022/01/27 00:22:32;;;;;;;33.78;18.45;;;3.80;99.90;;;;;;6082044;23;20014;-81
2022/01/27 00:24:58;;;;;;;34.67;19.08;;;3.80;99.90;;;;;;6083133;23;20010;-82
2022/01/27 00:27:24;;;;;;;37.83;20.88;;;3.80;99.90;;;;;;6113894;23;20006;-81
2022/01/27 00:29:49;;;;;;;35.03;18.70;;;3.80;99.90;;;;;;6125504;23;20493;-81
2022/01/27 00:32:15;;;;;;;31.77;17.60;;;3.80;99.90;;;;;;6195384;23;20012;-79
2022/01/27 00:34:41;;;;;;;33.42;17.95;;;3.80;99.90;;;;;;6196502;23;20411;-81
2022/01/27 00:37:06;;;;;;;35.60;18.92;;;3.80;99.90;;;;;;6195651;23;20001;-80
2022/01/27 00:39:32;;;;;;;31.13;17.55;;;3.80;99.90;;;;;;6196947;23;20423;-79
2022/01/27 00:41:57;;;;;;;28.30;15.57;;;3.80;99.90;;;;;;6197429;23;20001;-80
2022/01/27 00:44:23;;;;;;;33.13;17.45;;;3.80;99.90;;;;;;6194892;23;20033;-79
2022/01/27 00:46:49;;;;;;;29.30;15.20;;;3.90;99.90;;;;;;6196809;23;20057;-81
2022/01/27 00:49:14;;;;;;;29.13;17.25;;;3.90;99.90;;;;;;6200179;23;20107;-80
2022/01/27 00:51:44;;;;;;;39.85;22.13;;;3.90;99.90;;;;;;6197425;23;20386;-81
2022/01/27 00:54:19;;;;;;;31.95;18.60;;;3.90;99.90;;;;;;6197181;23;20325;-81
2022/01/27 00:56:54;;;;;;;32.45;18.13;;;3.90;99.90;;;;;;6195856;23;20048;-81
2022/01/27 01:01:52;;;;;;;35.08;19.15;;;3.90;99.90;;;;;;6196834;23;20048;-81
2022/01/27 01:04:25;;;;;;;29.52;16.13;;;3.90;99.90;;;;;;6196244;23;20052;-79
2022/01/27 01:06:52;;;;;;;24.52;13.13;;;3.90;99.90;;;;;;6197011;23;20085;-78
2022/01/27 01:10:04;;;;;;;30.52;17.05;;;4.00;99.90;;;;;;6195358;23;20013;-80
2022/01/27 01:14:55;;;;;;;34.08;18.80;;;3.90;99.90;;;;;;6198770;23;20008;-79
2022/01/27 01:20:08;;;;;;;30.15;18.08;;;4.00;99.90;;;;;;6197108;23;20005;-80
2022/01/27 01:30:57;;;;;;;27.05;14.05;;;4.00;99.90;;;;;;6200494;23;20008;-80
2022/01/27 01:33:55;;;;;;;26.30;14.85;;;4.00;99.90;;;;;;6195399;23;20080;-80
2022/01/27 01:59:47;;;;;;;28.45;15.82;;;4.10;99.90;;;;;;6198472;23;20012;-80
2022/01/27 02:02:14;;;;;;;21.75;12.32;;;4.10;99.90;;;;;;6171407;23;20092;-80
2022/01/27 02:04:41;;;;;;;29.33;15.07;;;4.00;99.90;;;;;;6196422;23;20017;-79
2022/01/27 02:07:16;;;;;;;25.80;14.27;;;4.10;99.90;;;;;;6196830;23;20005;-79
2022/01/27 02:18:09;;;;;;;25.88;15.15;;;4.10;99.90;;;;;;6149105;23;20038;-81
2022/01/27 02:20:40;;;;;;;32.33;17.80;;;4.10;99.90;;;;;;6165862;23;20005;-81
2022/01/27 02:23:10;;;;;;;32.65;17.27;;;4.10;99.90;;;;;;6139509;23;20068;-80
2022/01/27 02:25:36;;;;;;;32.38;18.75;;;4.10;99.90;;;;;;6141150;23;20016;-81
2022/01/27 02:28:02;;;;;;;33.40;16.15;;;4.10;99.90;;;;;;6141192;23;20013;-81
2022/01/27 02:30:27;;;;;;;32.13;16.95;;;4.20;99.90;;;;;;6140072;23;20006;-81
2022/01/27 02:32:54;;;;;;;29.35;16.70;;;4.20;99.90;;;;;;6140795;23;20522;-81
2022/01/27 02:35:24;;;;;;;29.58;17.08;;;4.20;99.90;;;;;;6116637;23;20009;-80
2022/01/27 02:37:51;;;;;;;29.95;15.38;;;4.20;99.90;;;;;;6140977;23;20020;-81
2022/01/27 02:40:42;;;;;;;25.38;13.80;;;4.20;99.90;;;;;;6165458;23;20084;-81
2022/01/27 02:43:09;;;;;;;29.45;16.13;;;4.20;99.90;;;;;;6140834;23;20022;-81
2022/01/27 02:45:58;;;;;;;30.63;16.25;;;4.30;99.90;;;;;;6164692;23;20024;-79
2022/01/27 02:48:24;;;;;;;28.80;16.52;;;4.20;99.90;;;;;;6150903;23;20245;-79
2022/01/27 02:50:49;;;;;;;24.90;14.93;;;4.20;99.90;;;;;;6196677;23;20284;-79
2022/01/27 02:53:15;;;;;;;21.15;13.27;;;4.20;99.90;;;;;;6196257;23;20016;-80
2022/01/27 02:55:41;;;;;;;26.67;15.85;;;4.30;99.90;;;;;;6197941;23;20012;-79
2022/01/27 02:58:07;;;;;;;28.98;15.32;;;4.20;99.90;;;;;;6196436;23;20068;-79
2022/01/27 03:00:33;;;;;;;25.98;15.07;;;4.20;99.90;;;;;;6197275;23;20012;-79
2022/01/27 03:02:59;;;;;;;22.80;14.00;;;4.30;99.90;;;;;;6198113;23;20092;-79
2022/01/27 03:05:25;;;;;;;25.02;13.80;;;4.30;99.90;;;;;;6171527;23;20009;-79
2022/01/27 03:07:50;;;;;;;30.52;16.73;;;4.30;99.90;;;;;;6170610;23;20009;-79
2022/01/27 03:10:17;;;;;;;26.70;15.75;;;4.30;99.90;;;;;;6197640;23;20001;-79
2022/01/27 03:12:44;;;;;;;26.90;14.65;;;4.30;99.90;;;;;;6198167;23;20004;-78
2022/01/27 03:15:11;;;;;;;33.13;19.38;;;4.30;99.90;;;;;;6195736;23;20423;-79
2022/01/27 03:17:38;;;;;;;30.15;15.85;;;4.30;99.90;;;;;;6198086;23;20067;-80
2022/01/27 03:20:05;;;;;;;26.02;15.68;;;4.30;99.90;;;;;;6196653;23;20077;-79
2022/01/27 03:22:31;;;;;;;27.55;16.63;;;4.30;99.90;;;;;;6195521;23;20001;-80
2022/01/27 03:24:56;;;;;;;25.92;14.93;;;4.40;99.90;;;;;;6196295;23;20094;-79
2022/01/27 03:27:25;;;;;;;26.83;13.90;;;4.40;99.90;;;;;;6195914;23;20001;-78
2022/01/27 03:29:51;;;;;;;22.38;12.40;;;4.40;99.90;;;;;;6195300;23;20009;-79
2022/01/27 03:32:17;;;;;;;26.67;15.43;;;4.30;99.90;;;;;;6170852;23;20339;-79
2022/01/27 03:34:43;;;;;;;27.40;14.10;;;4.40;99.90;;;;;;6196176;23;20507;-80
2022/01/27 03:37:08;;;;;;;23.20;12.93;;;4.40;99.90;;;;;;6197448;23;20376;-80
2022/01/27 03:39:37;;;;;;;26.58;13.77;;;4.30;99.90;;;;;;6177803;23;20083;-81
2022/01/27 03:42:04;;;;;;;25.60;14.02;;;4.40;99.90;;;;;;6197600;23;20005;-80
2022/01/27 03:44:29;;;;;;;24.17;14.10;;;4.40;99.90;;;;;;6194911;23;20041;-80
2022/01/27 03:46:55;;;;;;;25.45;14.32;;;4.40;99.90;;;;;;6196245;23;20009;-79
2022/01/27 03:49:21;;;;;;;23.98;14.50;;;4.40;99.90;;;;;;6195514;23;20009;-79
2022/01/27 03:51:47;;;;;;;23.30;15.25;;;4.40;99.90;;;;;;6171313;23;20005;-79
2022/01/27 03:54:14;;;;;;;25.25;14.77;;;4.40;99.90;;;;;;6195540;23;20035;-79
2022/01/27 03:56:40;;;;;;;27.83;15.90;;;4.40;99.90;;;;;;6197462;23;20000;-80
2022/01/27 03:59:05;;;;;;;33.70;17.50;;;4.30;99.90;;;;;;6195466;23;20020;-78
2022/01/27 04:01:31;;;;;;;28.17;17.45;;;4.30;99.90;;;;;;6195297;23;20072;-79
2022/01/27 04:03:59;;;;;;;26.10;15.68;;;4.40;99.90;;;;;;6195367;23;20081;-79
2022/01/27 04:06:33;;;;;;;24.38;14.25;;;4.40;99.90;;;;;;6197308;23;20052;-79
2022/01/27 04:09:00;;;;;;;23.27;14.55;;;4.30;99.90;;;;;;6196036;23;20021;-81
2022/01/27 04:11:26;;;;;;;27.45;14.38;;;4.40;99.90;;;;;;6200441;23;20047;-81
2022/01/27 04:13:52;;;;;;;20.67;11.82;;;4.40;99.90;;;;;;6173767;23;20447;-81
2022/01/27 04:16:17;;;;;;;22.17;12.10;;;4.30;99.90;;;;;;6197402;23;20008;-81
2022/01/27 04:18:43;;;;;;;20.67;11.10;;;4.30;99.90;;;;;;6195876;23;20032;-81
2022/01/27 04:21:08;;;;;;;20.77;11.57;;;4.40;99.90;;;;;;6196366;23;20374;-81
2022/01/27 04:23:34;;;;;;;20.95;11.65;;;4.30;99.90;;;;;;6197047;23;20160;-78
2022/01/27 04:26:00;;;;;;;18.83;11.07;;;4.40;99.90;;;;;;6196482;23;20087;-81
2022/01/27 04:28:30;;;;;;;26.83;13.27;;;4.40;99.90;;;;;;6170367;23;20009;-80
2022/01/27 04:30:58;;;;;;;20.70;10.35;;;4.40;99.90;;;;;;6170952;23;20001;-80
2022/01/27 04:33:26;;;;;;;19.98;11.63;;;4.40;99.90;;;;;;6196869;23;20005;-80
2022/01/27 04:35:56;;;;;;;24.15;12.20;;;4.40;99.90;;;;;;6171001;23;20009;-79
2022/01/27 04:38:29;;;;;;;22.95;12.52;;;4.40;99.90;;;;;;6197023;23;20001;-81
2022/01/27 04:48:51;;;;;;;26.38;13.75;;;4.40;99.90;;;;;;6195276;23;20079;-79
2022/01/27 04:51:20;;;;;;;28.65;15.32;;;4.50;99.90;;;;;;6197141;23;20036;-80
2022/01/27 04:53:59;;;;;;;27.10;15.35;;;4.50;99.90;;;;;;6197117;23;20017;-79
2022/01/27 04:56:26;;;;;;;27.07;14.07;;;4.50;99.90;;;;;;6196267;23;20057;-80
2022/01/27 04:58:57;;;;;;;26.20;14.23;;;4.50;99.90;;;;;;6195464;23;20270;-79
2022/01/27 05:01:30;;;;;;;25.35;14.07;;;4.50;99.90;;;;;;6195213;23;20060;-80
2022/01/27 05:04:02;;;;;;;24.67;12.75;;;4.50;99.90;;;;;;6195085;23;20152;-80
2022/01/27 05:06:27;;;;;;;24.25;12.93;;;4.50;99.90;;;;;;6196908;23;20006;-79
2022/01/27 05:08:54;;;;;;;25.60;13.38;;;4.60;99.90;;;;;;6170353;23;20055;-81
2022/01/27 05:11:28;;;;;;;25.13;12.77;;;4.60;99.90;;;;;;6194747;23;20001;-80
2022/01/27 05:14:04;;;;;;;21.63;12.80;;;4.60;99.90;;;;;;6197128;23;20059;-80
2022/01/27 05:16:29;;;;;;;23.95;10.95;;;4.60;99.90;;;;;;6194374;23;20001;-78
2022/01/27 05:18:55;;;;;;;23.63;12.95;;;4.60;99.90;;;;;;6195839;23;20044;-79
2022/01/27 05:21:21;;;;;;;22.30;11.98;;;4.70;99.90;;;;;;6195145;23;20009;-80
2022/01/27 05:23:47;;;;;;;25.00;12.15;;;4.70;99.90;;;;;;6196585;23;20013;-80
2022/01/27 05:26:13;;;;;;;21.92;12.23;;;4.70;99.90;;;;;;6196305;23;20009;-79
2022/01/27 05:28:39;;;;;;;21.30;11.45;;;4.70;99.90;;;;;;6196594;23;20039;-78
2022/01/27 05:31:05;;;;;;;24.38;13.00;;;4.80;99.90;;;;;;6194670;23;20009;-78
2022/01/27 05:33:31;;;;;;;23.98;11.70;;;4.80;99.90;;;;;;6196251;23;20013;-81
2022/01/27 05:35:57;;;;;;;22.05;13.40;;;4.80;99.90;;;;;;6197226;23;20069;-80
2022/01/27 05:38:22;;;;;;;21.95;11.90;;;4.80;99.90;;;;;;6195725;23;20012;-79
2022/01/27 05:40:48;;;;;;;21.02;11.32;;;4.80;99.90;;;;;;6195614;23;20017;-79
2022/01/27 05:43:14;;;;;;;26.10;13.15;;;4.80;99.90;;;;;;6194148;23;20009;-79
2022/01/27 05:45:40;;;;;;;27.60;14.07;;;4.80;99.90;;;;;;6196992;23;20009;-80
2022/01/27 05:48:06;;;;;;;24.95;13.68;;;4.90;99.90;;;;;;6196958;23;20288;-82
2022/01/27 05:50:32;;;;;;;24.25;11.32;;;4.90;99.90;;;;;;6196813;23;20088;-82
2022/01/27 05:52:59;;;;;;;23.50;13.23;;;4.90;99.90;;;;;;6194675;23;20016;-81
2022/01/27 05:55:24;;;;;;;22.50;11.68;;;4.90;99.90;;;;;;6194977;23;20005;-81
2022/01/27 05:57:50;;;;;;;25.48;13.18;;;4.90;99.90;;;;;;6197814;23;20120;-82
2022/01/27 06:00:17;;;;;;;26.10;13.32;;;4.80;99.90;;;;;;6196677;23;20005;-79
2022/01/27 06:02:42;;;;;;;25.95;13.57;;;4.90;99.90;;;;;;6196802;23;20009;-82
2022/01/27 06:13:28;;;;;;;29.55;14.68;;;4.90;99.90;;;;;;6193836;23;20039;-80
2022/01/27 06:15:54;;;;;;;27.48;14.30;;;4.80;99.90;;;;;;6169106;23;20032;-78
2022/01/27 06:18:19;;;;;;;25.83;12.05;;;4.80;99.90;;;;;;6167912;23;20037;-78
2022/01/27 06:20:46;;;;;;;28.17;13.77;;;4.70;99.90;;;;;;6168669;23;20065;-78
2022/01/27 06:23:13;;;;;;;26.40;12.57;;;4.70;99.90;;;;;;6141550;23;20037;-78
2022/01/27 06:25:39;;;;;;;32.67;15.02;;;4.70;99.90;;;;;;6142290;23;20377;-78
2022/01/27 06:28:05;;;;;;;26.40;12.85;;;4.70;99.90;;;;;;6167116;23;20491;-78
2022/01/27 06:30:34;;;;;;;21.42;11.40;;;4.70;99.90;;;;;;6168011;23;20002;-78
2022/01/27 06:33:04;;;;;;;30.30;15.18;;;4.70;99.90;;;;;;6142260;23;20033;-78
2022/01/27 06:35:30;;;;;;;30.30;15.07;;;4.70;99.90;;;;;;6154063;23;20064;-78
2022/01/27 06:37:55;;;;;;;27.77;13.50;;;4.70;99.90;;;;;;6165990;23;20006;-78
2022/01/27 06:40:21;;;;;;;21.98;12.27;;;4.70;99.90;;;;;;6164739;23;20014;-77
2022/01/27 06:42:47;;;;;;;28.17;14.95;;;4.70;99.90;;;;;;6167329;23;20020;-78
2022/01/27 06:45:12;;;;;;;26.58;13.70;;;4.70;99.90;;;;;;6167712;23;20013;-79
2022/01/27 08:39:54;;;;;;;25.83;13.15;;;5.00;99.90;;;;;;6172239;23;20020;-81
2022/01/27 08:42:19;;;;;;;22.23;12.10;;;5.00;99.90;;;;;;6226319;23;20000;-80
2022/01/27 08:44:45;;;;;;;21.88;10.88;;;5.00;99.90;;;;;;6175475;23;20027;-78
2022/01/27 08:47:15;;;;;;;22.75;12.18;;;5.00;99.90;;;;;;6199134;23;20000;-78
2022/01/27 08:49:43;;;;;;;21.92;11.07;;;5.10;99.90;;;;;;6200355;23;20015;-78
2022/01/27 08:52:09;;;;;;;20.35;12.30;;;5.10;99.90;;;;;;6227024;23;20012;-78
2022/01/27 08:54:34;;;;;;;24.65;12.75;;;5.20;99.90;;;;;;6199649;23;20012;-78
2022/01/27 08:57:00;;;;;;;23.63;13.13;;;5.20;99.90;;;;;;6226567;23;20023;-78
2022/01/27 08:59:25;;;;;;;24.20;13.55;;;5.20;99.90;;;;;;6226390;23;20012;-78
2022/01/27 09:01:51;;;;;;;22.48;12.55;;;5.30;99.90;;;;;;6226003;23;20008;-78
2022/01/27 09:04:16;;;;;;;26.92;14.85;;;5.30;99.90;;;;;;6199150;23;20024;-78
2022/01/27 09:06:42;;;;;;;26.85;13.50;;;5.40;99.90;;;;;;6200226;23;20000;-78
2022/01/27 09:09:08;;;;;;;28.40;15.95;;;5.40;99.90;;;;;;6199774;23;20018;-78
2022/01/27 09:19:09;;;;;;;23.00;12.57;;;5.50;99.90;;;;;;6226569;23;20023;-78
2022/01/27 09:21:44;;;;;;;19.63;11.50;;;5.60;99.90;;;;;;6226243;23;20016;-78
2022/01/27 09:24:15;;;;;;;19.30;10.90;;;5.60;99.90;;;;;;6175080;23;20405;-78
2022/01/27 09:29:13;;;;;;;24.77;12.88;;;5.70;99.90;;;;;;6199948;23;20017;-79
2022/01/27 09:31:39;;;;;;;21.33;10.85;;;5.70;99.90;;;;;;6199523;23;20013;-80
2022/01/27 09:34:04;;;;;;;22.30;11.57;;;5.80;99.90;;;;;;6201987;23;20031;-80
2022/01/27 09:36:30;;;;;;;24.38;13.85;;;5.80;99.90;;;;;;6201855;23;20008;-81
2022/01/27 09:38:56;;;;;;;20.42;11.82;;;5.90;99.90;;;;;;6196540;23;20088;-80
2022/01/27 09:41:22;;;;;;;26.35;12.32;;;5.90;99.90;;;;;;6197967;23;20016;-80
2022/01/27 09:43:52;;;;;;;23.45;14.05;;;5.90;99.90;;;;;;6198022;23;20017;-81
2022/01/27 09:46:24;;;;;;;25.08;13.63;;;5.90;99.90;;;;;;6197340;23;20009;-79
2022/01/27 09:48:51;;;;;;;20.00;11.73;;;5.90;99.90;;;;;;6198439;23;20017;-79
2022/01/27 09:53:51;;;;;;;19.35;11.00;;;6.00;99.90;;;;;;6198564;23;20024;-79
2022/01/27 09:56:17;;;;;;;20.42;12.02;;;6.00;99.90;;;;;;6171573;23;20005;-80
2022/01/27 09:58:43;;;;;;;19.75;12.85;;;6.00;99.90;;;;;;6198207;23;20009;-78
2022/01/27 10:01:09;;;;;;;23.60;12.35;;;6.00;99.90;;;;;;6195668;23;20005;-80
2022/01/27 10:03:55;;;;;;;23.40;13.43;;;6.00;99.90;;;;;;6197391;23;20457;-81
2022/01/27 10:06:27;;;;;;;21.77;13.55;;;6.00;99.90;;;;;;6197852;23;20059;-80
2022/01/27 10:09:11;;;;;;;20.77;11.80;;;6.00;99.90;;;;;;6198229;23;20017;-79
2022/01/27 10:11:37;;;;;;;24.48;12.32;;;6.10;99.90;;;;;;6197745;23;20009;-80
2022/01/27 10:14:33;;;;;;;19.65;11.43;;;6.10;99.90;;;;;;6197737;23;20001;-80
2022/01/27 10:17:01;;;;;;;21.88;12.50;;;6.10;99.90;;;;;;6198097;23;20005;-80
2022/01/27 10:19:30;;;;;;;25.55;12.93;;;6.10;99.90;;;;;;6195440;23;20065;-78
2022/01/27 10:22:01;;;;;;;19.10;12.35;;;6.10;99.90;;;;;;6196224;23;20067;-79
2022/01/27 11:53:52;;;;;;;21.10;11.48;;;7.00;99.90;;;;;;6197808;23;20272;-76
2022/01/27 11:56:26;;;;;;;17.10;10.93;;;7.00;99.90;;;;;;6196538;23;20579;-76
2022/01/27 11:58:54;;;;;;;24.75;13.80;;;7.00;99.90;;;;;;6170234;23;20052;-75
2022/01/27 12:01:27;;;;;;;24.67;12.68;;;7.10;99.90;;;;;;6167488;23;20017;-76
2022/01/27 12:04:05;;;;;;;22.60;13.07;;;7.10;99.90;;;;;;6169579;23;20017;-74
2022/01/27 12:06:34;;;;;;;25.02;15.02;;;7.10;99.90;;;;;;6175891;23;20096;-75
2022/01/27 12:09:30;;;;;;;23.65;15.57;;;7.20;99.90;;;;;;6171640;23;20059;-75
2022/01/27 12:12:04;;;;;;;23.00;12.73;;;7.20;99.90;;;;;;6145590;23;20009;-76
2022/01/27 12:14:31;;;;;;;21.30;14.07;;;7.20;99.90;;;;;;6169896;23;20005;-76
2022/01/27 12:17:09;;;;;;;31.85;16.25;;;7.30;99.90;;;;;;6169755;23;20005;-75
2022/01/27 12:19:56;;;;;;;31.40;15.55;;;7.30;99.90;;;;;;6145070;23;20036;-75
2022/01/27 12:22:26;;;;;;;29.02;15.45;;;7.30;99.90;;;;;;6169630;23;20316;-75
2022/01/27 12:25:02;;;;;;;25.83;14.52;;;7.40;99.90;;;;;;6169356;23;20072;-75
2022/01/27 12:27:29;;;;;;;27.35;13.20;;;7.40;99.90;;;;;;6145212;23;20005;-75
2022/01/27 12:29:57;;;;;;;24.38;13.82;;;7.40;99.90;;;;;;6170291;23;20009;-76
2022/01/27 12:32:31;;;;;;;22.83;14.00;;;7.40;99.90;;;;;;6169132;23;20005;-75
2022/01/27 12:35:12;;;;;;;27.33;14.65;;;7.40;99.90;;;;;;6145242;23;20343;-75
2022/01/27 12:37:40;;;;;;;23.92;14.65;;;7.40;99.90;;;;;;6195973;23;20036;-76
2022/01/27 12:40:26;;;;;;;24.27;12.88;;;7.40;99.90;;;;;;6145007;23;20064;-75
2022/01/27 12:43:01;;;;;;;24.67;14.10;;;7.40;99.90;;;;;;6195423;23;20083;-75
2022/01/27 12:45:32;;;;;;;23.38;13.45;;;7.40;99.90;;;;;;6143816;23;20012;-75
2022/01/27 12:48:02;;;;;;;23.08;13.40;;;7.40;99.90;;;;;;6169945;23;20001;-75
2022/01/27 12:50:28;;;;;;;;;;;7.40;99.90;;;;;;6145188;23;20762;-75
2022/01/27 12:52:59;;;;;;;25.75;13.32;;;7.40;99.90;;;;;;6173163;23;20393;-75
2022/01/27 12:55:37;;;;;;;26.17;13.45;;;7.40;99.90;;;;;;6168568;23;20020;-76
2022/01/27 12:58:08;;;;;;;23.20;14.55;;;7.40;99.90;;;;;;6194229;23;20027;-75
2022/01/27 13:00:44;;;;;;;24.02;14.98;;;7.40;99.90;;;;;;6193891;23;20009;-75
2022/01/27 13:03:10;;;;;;;21.70;12.45;;;7.40;99.90;;;;;;6194534;23;20005;-75
2022/01/27 13:05:38;;;;;;;24.50;14.90;;;7.50;99.90;;;;;;6194398;23;20017;-77
2022/01/27 13:08:09;;;;;;;23.90;14.38;;;7.40;99.90;;;;;;6194939;23;20009;-75
2022/01/27 13:10:36;;;;;;;26.65;15.68;;;7.50;99.90;;;;;;6169343;23;20512;-77
2022/01/27 13:13:16;;;;;;;26.67;15.00;;;7.50;99.90;;;;;;6194310;23;20013;-76
2022/01/27 13:15:43;;;;;;;25.17;15.80;;;7.60;99.90;;;;;;6194311;23;20009;-75
2022/01/27 13:18:29;;;;;;;23.42;13.40;;;7.60;99.90;;;;;;6194602;23;20009;-75
2022/01/27 13:20:57;;;;;;;23.50;15.63;;;7.70;99.90;;;;;;6194939;23;20016;-76
2022/01/27 13:23:33;;;;;;;19.88;13.38;;;7.70;99.90;;;;;;6168191;23;20016;-75
2022/01/27 13:26:05;;;;;;;27.08;14.63;;;7.80;99.90;;;;;;6196281;23;20065;-75
2022/01/27 13:28:36;;;;;;;18.15;12.90;;;7.80;99.90;;;;;;6194273;23;20041;-76
2022/01/27 13:31:12;;;;;;;22.83;13.07;;;7.90;99.90;;;;;;6196024;23;20028;-76
2022/01/27 13:33:45;;;;;;;24.92;13.55;;;7.90;99.90;;;;;;6194181;23;20013;-77
2022/01/27 13:36:21;;;;;;;22.83;13.45;;;7.90;99.90;;;;;;6196079;23;20104;-75
2022/01/27 13:39:10;;;;;;;22.30;11.82;;;7.80;99.90;;;;;;6195567;23;20005;-76
2022/01/27 13:41:42;;;;;;;20.48;13.13;;;7.80;99.90;;;;;;6174828;23;20025;-76
2022/01/27 13:44:16;;;;;;;22.10;12.98;;;7.80;99.90;;;;;;6194811;23;20017;-76
2022/01/27 13:46:58;;;;;;;19.23;12.38;;;7.90;99.90;;;;;;6196412;23;20024;-76
2022/01/27 13:49:33;;;;;;;22.08;13.85;;;7.90;99.90;;;;;;6195605;23;20017;-76
2022/01/27 13:52:00;;;;;;;21.70;12.63;;;8.00;99.90;;;;;;6195478;23;20136;-76
2022/01/27 13:54:36;;;;;;;22.65;13.25;;;8.00;99.90;;;;;;6195143;23;20017;-76
2022/01/27 13:57:07;;;;;;;18.77;10.55;;;8.00;99.90;;;;;;6169411;23;20073;-76
2022/01/27 13:59:59;;;;;;;20.20;12.13;;;8.10;99.90;;;;;;6169016;23;20209;-76
2022/01/27 14:02:33;;;;;;;20.63;11.50;;;8.20;99.90;;;;;;6169201;23;20016;-76
2022/01/27 14:05:01;;;;;;;20.95;10.70;;;8.20;99.90;;;;;;6195529;23;20017;-76
2022/01/27 14:07:28;;;;;;;21.05;11.40;;;8.20;99.90;;;;;;6168401;23;20005;-76
2022/01/27 14:09:54;;;;;;;20.63;9.73;;;8.20;99.90;;;;;;6196104;23;20009;-76
2022/01/27 14:12:25;;;;;;;18.48;9.13;;;8.20;99.90;;;;;;6195529;23;20005;-76
2022/01/27 14:14:53;;;;;;;16.52;7.55;;;8.30;99.90;;;;;;6195212;23;20080;-75
2022/01/27 14:17:27;;;;;;;13.30;6.88;;;8.40;99.90;;;;;;6195538;23;20009;-76
2022/01/27 14:19:54;;;;;;;18.33;6.90;;;8.40;99.90;;;;;;6170084;23;20009;-76
2022/01/27 14:22:24;;;;;;;12.45;5.70;;;8.40;99.90;;;;;;6145607;23;20013;-76
2022/01/27 14:25:02;;;;;;;13.52;5.85;;;8.40;99.90;;;;;;6146459;23;20028;-76
2022/01/27 14:27:53;;;;;;;13.32;5.00;;;8.40;99.90;;;;;;6197132;23;20309;-76
2022/01/27 14:30:19;;;;;;;13.50;5.38;;;8.50;99.90;;;;;;6190873;23;20020;-76
2022/01/27 14:32:45;;;;;;;11.25;3.38;;;8.50;99.90;;;;;;6197427;23;20060;-75
2022/01/27 14:35:14;;;;;;;17.17;3.38;;;8.50;99.90;;;;;;6170565;23;20001;-76
2022/01/27 14:37:41;;;;;;;9.90;2.60;;;8.50;99.90;;;;;;6197162;23;20005;-76
2022/01/27 14:40:13;;;;;;;9.65;2.60;;;8.60;99.90;;;;;;6197484;23;20012;-75
2022/01/27 14:42:40;;;;;;;11.43;2.97;;;8.60;99.90;;;;;;6197480;23;20009;-76
2022/01/27 14:45:08;;;;;;;8.88;1.80;;;8.60;99.90;;;;;;6170393;23;20040;-75
2022/01/27 14:47:40;;;;;;;8.32;1.80;;;8.60;99.90;;;;;;6197314;23;20378;-75
2022/01/27 14:50:06;;;;;;;8.60;2.03;;;8.60;99.90;;;;;;6196864;23;20009;-76
2022/01/27 14:52:32;;;;;;;9.05;2.10;;;8.60;99.90;;;;;;6169984;23;20032;-76
2022/01/27 14:54:58;;;;;;;12.23;1.42;;;8.60;99.90;;;;;;6170933;23;20108;-77
2022/01/27 14:57:23;;;;;;;11.38;1.20;;;8.60;99.90;;;;;;6196574;23;20008;-76
2022/01/27 14:59:49;;;;;;;8.70;1.63;;;8.50;99.90;;;;;;6196714;23;20076;-76
2022/01/27 15:02:15;;;;;;;6.88;1.50;;;8.50;99.90;;;;;;6196893;23;20336;-76
2022/01/27 15:04:40;;;;;;;9.68;1.65;;;8.50;99.90;;;;;;6196224;23;20107;-77
2022/01/27 15:07:06;;;;;;;8.35;1.38;;;8.50;99.90;;;;;;6170804;23;19997;-76
2022/01/27 15:09:32;;;;;;;10.55;1.75;;;8.40;99.90;;;;;;6145349;23;20044;-76
2022/01/27 15:11:57;;;;;;;9.65;1.38;;;8.50;99.90;;;;;;6173041;23;20027;-76
2022/01/27 15:19:53;;;;;;;8.98;1.00;;;8.40;99.90;;;;;;6169678;23;20067;-76
2022/01/27 15:22:20;;;;;;;10.05;1.02;;;8.40;99.90;;;;;;6196565;23;20111;-76
2022/01/27 15:24:45;;;;;;;7.93;1.02;;;8.40;99.90;;;;;;6169926;23;20017;-76
2022/01/27 15:27:11;;;;;;;8.27;1.33;;;8.50;99.90;;;;;;6197680;23;20001;-76
2022/01/27 15:29:38;;;;;;;7.78;1.27;;;8.50;99.90;;;;;;6196621;23;20009;-76
2022/01/27 15:32:05;;;;;;;6.30;1.00;;;8.40;99.90;;;;;;6197598;23;20021;-75
2022/01/27 15:34:31;;;;;;;8.57;0.98;;;8.40;99.90;;;;;;6196117;23;20015;-75
2022/01/27 15:36:59;;;;;;;12.05;2.20;;;8.40;99.90;;;;;;6197482;23;20016;-76
2022/01/27 15:39:25;;;;;;;76.78;29.10;;;8.40;99.90;;;;;;6197342;23;20032;-75
2022/01/27 15:41:51;;;;;;;46.47;18.58;;;8.40;99.90;;;;;;6171275;23;20044;-76
2022/01/27 15:44:20;;;;;;;45.00;18.00;;;8.30;99.90;;;;;;6169486;23;20017;-76
2022/01/27 15:46:46;;;;;;;46.60;18.07;;;8.30;99.90;;;;;;6167659;23;20531;-76
2022/01/27 15:49:12;;;;;;;14.93;4.60;;;8.30;99.90;;;;;;6203326;23;19993;-76
2022/01/27 15:51:38;;;;;;;19.95;4.63;;;8.20;99.90;;;;;;6172481;23;20083;-76
2022/01/27 15:54:08;;;;;;;36.60;10.07;;;8.20;99.90;;;;;;6188268;23;20017;-76
2022/01/27 15:56:36;;;;;;;61.83;21.08;;;8.20;99.90;;;;;;6196669;23;20036;-75
2022/01/27 15:59:02;;;;;;;78.13;28.23;;;8.20;99.90;;;;;;6194285;23;20044;-75
2022/01/27 16:01:28;;;;;;;61.28;23.08;;;8.20;99.90;;;;;;6196178;23;20011;-76
2022/01/27 16:03:54;;;;;;;33.10;15.27;;;8.20;99.90;;;;;;6195811;23;20021;-76
2022/01/27 16:06:20;;;;;;;26.70;10.27;;;8.30;99.90;;;;;;6196753;23;20008;-76
2022/01/27 16:08:46;;;;;;;34.15;15.25;;;8.30;99.90;;;;;;6194256;23;20017;-76
2022/01/27 16:11:12;;;;;;;16.55;6.60;;;8.20;99.90;;;;;;6196541;23;20005;-76
2022/01/27 16:13:38;;;;;;;24.77;7.35;;;8.20;99.90;;;;;;6194380;23;20008;-76
2022/01/27 16:16:04;;;;;;;21.63;7.88;;;8.10;99.90;;;;;;6195629;23;20438;-76
2022/01/27 16:18:30;;;;;;;8.20;3.10;;;8.10;99.90;;;;;;6195832;23;20009;-76
2022/01/27 16:20:56;;;;;;;9.23;1.92;;;8.10;99.90;;;;;;6196974;23;20059;-76
2022/01/27 16:23:22;;;;;;;7.75;1.33;;;8.10;99.90;;;;;;6195960;23;20005;-76
2022/01/27 16:25:48;;;;;;;11.38;3.35;;;8.00;99.90;;;;;;6194761;23;20084;-76
2022/01/27 16:32:01;;;;;;;5.38;0.80;;;8.00;99.90;;;;;;6191804;23;20475;-76
2022/01/27 16:34:27;;;;;;;8.45;1.58;;;8.00;99.90;;;;;;6195346;23;20009;-76
2022/01/27 16:36:52;;;;;;;9.13;1.52;;;8.00;99.90;;;;;;6194591;23;20071;-76
2022/01/27 16:39:18;;;;;;;7.88;1.23;;;8.00;99.90;;;;;;6196168;23;20016;-76
2022/01/27 16:41:44;;;;;;;7.82;0.88;;;7.90;99.90;;;;;;6194011;23;20009;-75
2022/01/27 16:44:09;;;;;;;6.85;0.80;;;7.90;99.90;;;;;;6195872;23;20017;-75
2022/01/27 16:46:35;;;;;;;7.97;0.60;;;7.90;99.90;;;;;;6195021;23;20024;-76
2022/01/27 16:49:01;;;;;;;11.27;0.73;;;7.90;99.90;;;;;;6197152;23;20061;-75
2022/01/27 16:51:26;;;;;;;7.53;0.60;;;7.90;99.90;;;;;;6196319;23;20024;-76
2022/01/27 16:53:56;;;;;;;10.25;0.65;;;7.80;99.90;;;;;;6196685;23;20032;-75
2022/01/27 16:56:23;;;;;;;11.05;0.73;;;7.80;99.90;;;;;;6196431;23;20442;-75
2022/01/27 16:58:49;;;;;;;14.85;0.80;;;7.70;99.90;;;;;;6170565;23;20009;-76
2022/01/27 17:01:16;;;;;;;8.85;0.85;;;7.70;99.90;;;;;;6169377;23;20089;-75
2022/01/27 17:03:42;;;;;;;14.48;1.08;;;7.70;99.90;;;;;;6196498;23;20016;-74
2022/01/27 17:06:08;;;;;;;7.47;0.70;;;7.70;99.90;;;;;;6196886;23;20061;-75
2022/01/27 17:08:34;;;;;;;17.02;0.75;;;7.70;99.90;;;;;;6196543;23;20219;-75
2022/01/27 17:10:59;;;;;;;12.70;1.70;;;7.60;99.90;;;;;;6197258;23;20037;-75
2022/01/27 17:13:25;;;;;;;10.15;0.50;;;7.60;99.90;;;;;;6144311;23;20012;-75
2022/01/27 17:15:51;;;;;;;7.43;0.63;;;7.50;99.90;;;;;;6170201;23;20009;-74
2022/01/27 17:18:16;;;;;;;12.32;0.52;;;7.40;99.90;;;;;;6196277;23;20001;-75
2022/01/27 17:20:43;;;;;;;13.10;0.73;;;7.30;99.90;;;;;;6197325;23;20005;-76
2022/01/27 17:23:10;;;;;;;16.20;0.70;;;7.40;99.90;;;;;;6170531;23;20079;-75
2022/01/27 17:25:35;;;;;;;9.27;0.70;;;7.40;99.90;;;;;;6197299;23;20016;-75
2022/01/27 17:28:01;;;;;;;8.68;0.57;;;7.40;99.90;;;;;;6195085;23;20005;-76
2022/01/27 17:30:27;;;;;;;8.93;0.88;;;7.40;99.90;;;;;;6194136;23;20009;-75
2022/01/27 17:32:54;;;;;;;8.52;0.60;;;7.40;99.90;;;;;;6197122;23;20322;-75
2022/01/27 17:35:21;;;;;;;12.82;0.93;;;7.40;99.90;;;;;;6196263;23;20016;-75
2022/01/27 17:37:47;;;;;;;13.40;0.60;;;7.40;99.90;;;;;;6170056;23;20054;-75
2022/01/27 17:40:17;;;;;;;11.52;0.70;;;7.40;99.90;;;;;;6196532;23;20005;-75
2022/01/27 17:42:52;;;;;;;8.10;0.82;;;7.30;99.90;;;;;;6196689;23;20005;-76
2022/01/27 17:45:19;;;;;;;14.30;0.75;;;7.30;99.90;;;;;;6169777;23;20065;-75